createdAt,value
2019-01-13T00:00:40.077Z,15.28
2019-01-13T00:01:21.429Z,15.36
2019-01-13T00:02:02.109Z,15.35
2019-01-13T00:02:43.126Z,15.32
2019-01-13T00:03:23.758Z,15.31
2019-01-13T00:04:04.664Z,15.28
2019-01-13T00:04:45.367Z,15.35
2019-01-13T00:05:26.461Z,15.31
2019-01-13T00:06:07.067Z,15.31
2019-01-13T00:06:47.773Z,15.29
2019-01-13T00:07:28.387Z,15.28
2019-01-13T00:08:09.120Z,15.31
2019-01-13T00:08:49.823Z,15.31
2019-01-13T00:09:30.480Z,15.32
2019-01-13T00:11:45.785Z,15.34
2019-01-13T00:12:26.412Z,15.31
2019-01-13T00:13:07.084Z,15.31
2019-01-13T00:13:47.724Z,15.28
2019-01-13T00:14:28.320Z,15.32
2019-01-13T00:15:08.913Z,15.31
2019-01-13T00:15:49.547Z,15.31
2019-01-13T00:16:30.171Z,15.31
2019-01-13T00:17:10.882Z,15.34
2019-01-13T00:17:51.509Z,15.31
2019-01-13T00:18:32.140Z,15.32
2019-01-13T00:19:12.816Z,15.29
2019-01-13T00:19:53.484Z,15.28
2019-01-13T00:20:34.116Z,15.21
2019-01-13T00:21:14.702Z,15.21
2019-01-13T00:21:55.299Z,15.21
2019-01-13T00:22:35.913Z,15.19
2019-01-13T00:23:18.464Z,15.25
2019-01-13T00:23:58.967Z,15.28
2019-01-13T00:24:39.606Z,15.32
2019-01-13T00:25:20.231Z,15.27
2019-01-13T00:26:00.840Z,15.29
2019-01-13T00:26:41.465Z,15.28
2019-01-13T00:27:22.082Z,15.25
2019-01-13T00:28:02.685Z,15.34
2019-01-13T00:28:43.353Z,15.21
2019-01-13T00:29:23.970Z,15.28
2019-01-13T00:30:04.584Z,15.21
2019-01-13T00:30:45.193Z,15.28
2019-01-13T00:31:25.818Z,15.27
2019-01-13T00:32:06.447Z,15.2
2019-01-13T00:32:47.060Z,15.21
2019-01-13T00:33:27.788Z,15.21
2019-01-13T00:34:08.411Z,15.17
2019-01-13T00:34:49.044Z,15.28
2019-01-13T00:35:29.950Z,15.25
2019-01-13T00:36:10.562Z,15.2
2019-01-13T00:36:51.283Z,15.19
2019-01-13T00:37:31.892Z,15.31
2019-01-13T00:38:12.556Z,15.28
2019-01-13T00:38:53.181Z,15.27
2019-01-13T00:39:33.794Z,15.2
2019-01-13T00:40:14.526Z,15.16
2019-01-13T00:40:55.148Z,15.28
2019-01-13T00:41:35.886Z,15.21
2019-01-13T00:42:16.629Z,15.21
2019-01-13T00:42:57.083Z,15.25
2019-01-13T00:43:37.703Z,15.25
2019-01-13T00:44:18.322Z,15.28
2019-01-13T00:44:58.924Z,15.29
2019-01-13T00:45:39.766Z,15.28
2019-01-13T00:46:20.486Z,15.23
2019-01-13T00:47:01.137Z,15.29
2019-01-13T00:47:41.773Z,15.28
2019-01-13T00:48:22.407Z,15.25
2019-01-13T00:49:03.066Z,15.25
2019-01-13T00:49:43.884Z,15.23
2019-01-13T00:50:24.430Z,15.21
2019-01-13T00:51:05.078Z,15.2
2019-01-13T00:51:45.714Z,15.17
2019-01-13T00:52:26.452Z,15.28
2019-01-13T00:53:07.059Z,15.31
2019-01-13T00:53:47.696Z,15.14
2019-01-13T00:54:28.588Z,15.13
2019-01-13T00:55:09.280Z,15.16
2019-01-13T00:55:49.942Z,15.16
2019-01-13T00:56:30.562Z,15.14
2019-01-13T00:57:11.174Z,15.25
2019-01-13T00:57:51.770Z,15.16
2019-01-13T00:58:32.424Z,15.23
2019-01-13T00:59:13.090Z,15.17
2019-01-13T00:59:53.706Z,15.11
2019-01-13T01:00:34.389Z,15.28
2019-01-13T01:01:15.020Z,15.23
2019-01-13T01:01:55.627Z,15.23
2019-01-13T01:02:36.234Z,15.13
2019-01-13T01:03:16.870Z,15.25
2019-01-13T01:03:57.517Z,15.13
2019-01-13T01:04:38.164Z,15.17
2019-01-13T01:05:18.801Z,15.2
2019-01-13T01:05:59.435Z,15.17
2019-01-13T01:06:40.074Z,15.14
2019-01-13T01:07:20.737Z,15.19
2019-01-13T01:08:01.312Z,15.21
2019-01-13T01:08:41.973Z,15.16
2019-01-13T01:09:22.583Z,15.14
2019-01-13T01:10:03.224Z,15.23
2019-01-13T01:10:43.836Z,15.2
2019-01-13T01:11:24.489Z,15.17
2019-01-13T01:12:05.129Z,15.17
2019-01-13T01:12:45.730Z,15.14
2019-01-13T01:13:26.360Z,15.19
2019-01-13T01:14:06.977Z,15.16
2019-01-13T01:14:47.663Z,15.17
2019-01-13T01:15:28.268Z,15.17
2019-01-13T01:16:08.874Z,15.2
2019-01-13T01:16:49.544Z,15.13
2019-01-13T01:17:30.182Z,15.23
2019-01-13T01:18:10.795Z,15.13
2019-01-13T01:18:51.414Z,15.19
2019-01-13T01:19:32.034Z,15.16
2019-01-13T01:20:12.666Z,15.17
2019-01-13T01:20:53.308Z,15.13
2019-01-13T01:21:33.930Z,15.17
2019-01-13T01:22:14.596Z,15.13
2019-01-13T01:22:55.220Z,15.17
2019-01-13T01:23:35.894Z,15.21
2019-01-13T01:24:16.502Z,15.16
2019-01-13T01:24:57.166Z,15.14
2019-01-13T01:25:38.052Z,15.17
2019-01-13T01:26:18.778Z,15.16
2019-01-13T01:26:59.308Z,15.21
2019-01-13T01:27:39.920Z,15.17
2019-01-13T01:28:20.537Z,15.17
2019-01-13T01:29:01.210Z,15.14
2019-01-13T01:29:41.874Z,15.11
2019-01-13T01:30:22.516Z,15.21
2019-01-13T01:31:03.194Z,15.17
2019-01-13T01:31:43.800Z,15.17
2019-01-13T01:32:24.446Z,15.2
2019-01-13T01:33:05.060Z,15.16
2019-01-13T01:33:45.692Z,15.16
2019-01-13T01:34:27.400Z,15.14
2019-01-13T01:35:06.894Z,15.14
2019-01-13T01:35:47.510Z,15.13
2019-01-13T01:36:28.173Z,15.16
2019-01-13T01:37:08.764Z,15.16
2019-01-13T01:37:49.361Z,15.14
2019-01-13T01:38:30.004Z,15.14
2019-01-13T01:39:10.620Z,15.16
2019-01-13T01:39:51.236Z,15.17
2019-01-13T01:40:31.846Z,15.17
2019-01-13T01:41:12.470Z,15.16
2019-01-13T01:41:53.068Z,15.21
2019-01-13T01:42:33.669Z,15.11
2019-01-13T01:43:14.274Z,15.16
2019-01-13T01:43:54.868Z,15.16
2019-01-13T01:44:35.486Z,15.13
2019-01-13T01:45:16.078Z,15.13
2019-01-13T01:45:56.680Z,15.13
2019-01-13T01:46:37.300Z,15.17
2019-01-13T01:47:17.924Z,15.16
2019-01-13T01:47:58.522Z,15.14
2019-01-13T01:48:39.136Z,15.16
2019-01-13T01:49:19.748Z,15.13
2019-01-13T01:50:00.378Z,15.13
2019-01-13T01:50:40.996Z,15.14
2019-01-13T01:51:21.596Z,15.21
2019-01-13T01:52:02.220Z,15.17
2019-01-13T01:52:42.866Z,15.17
2019-01-13T01:53:23.534Z,15.16
2019-01-13T01:54:04.158Z,15.14
2019-01-13T01:54:44.762Z,15.13
2019-01-13T01:55:25.410Z,15.14
2019-01-13T01:56:06.016Z,15.23
2019-01-13T01:56:46.624Z,15.21
2019-01-13T01:57:27.254Z,15.25
2019-01-13T01:58:07.892Z,15.16
2019-01-13T01:58:48.520Z,15.14
2019-01-13T01:59:29.196Z,15.21
2019-01-13T02:00:09.816Z,15.19
2019-01-13T02:00:50.436Z,15.16
2019-01-13T02:01:31.035Z,15.14
2019-01-13T02:02:11.646Z,15.17
2019-01-13T02:02:52.254Z,15.1
2019-01-13T02:03:32.892Z,15.11
2019-01-13T02:04:13.511Z,15.2
2019-01-13T02:04:54.201Z,15.14
2019-01-13T02:05:34.766Z,15.14
2019-01-13T02:06:15.412Z,15.14
2019-01-13T02:06:56.020Z,15.2
2019-01-13T02:07:36.648Z,15.16
2019-01-13T02:08:17.271Z,15.17
2019-01-13T02:08:57.924Z,15.19
2019-01-13T02:09:38.570Z,15.14
2019-01-13T02:10:19.175Z,15.17
2019-01-13T02:10:59.782Z,15.07
2019-01-13T02:11:40.440Z,15.19
2019-01-13T02:12:21.082Z,15.19
2019-01-13T02:13:01.687Z,15.11
2019-01-13T02:13:42.294Z,15.11
2019-01-13T02:14:22.912Z,15.19
2019-01-13T02:15:03.516Z,15.19
2019-01-13T02:15:44.143Z,15.17
2019-01-13T02:16:24.834Z,15.19
2019-01-13T02:17:05.450Z,15.07
2019-01-13T02:17:46.067Z,15.1
2019-01-13T02:18:26.698Z,15.13
2019-01-13T02:19:07.310Z,15.14
2019-01-13T02:19:47.932Z,15.17
2019-01-13T02:20:28.556Z,15.19
2019-01-13T02:21:09.166Z,15.2
2019-01-13T02:21:49.808Z,15.13
2019-01-13T02:22:30.436Z,15.03
2019-01-13T02:23:11.060Z,15.17
2019-01-13T02:23:51.708Z,15.16
2019-01-13T02:24:32.321Z,15.16
2019-01-13T02:25:12.928Z,15.17
2019-01-13T02:25:53.543Z,15.19
2019-01-13T02:26:34.182Z,15.17
2019-01-13T02:27:14.806Z,15.11
2019-01-13T02:27:55.427Z,15.17
2019-01-13T02:28:36.052Z,15.1
2019-01-13T02:29:16.654Z,15.14
2019-01-13T02:29:57.252Z,15.16
2019-01-13T02:30:37.848Z,15.11
2019-01-13T02:31:18.484Z,15.16
2019-01-13T02:31:59.128Z,15.03
2019-01-13T02:32:39.739Z,15.16
2019-01-13T02:33:20.370Z,15.02
2019-01-13T02:34:00.985Z,15.13
2019-01-13T02:34:41.626Z,15.16
2019-01-13T02:35:22.214Z,15.14
2019-01-13T02:36:02.832Z,15.09
2019-01-13T02:36:43.424Z,15.06
2019-01-13T02:37:24.033Z,15.13
2019-01-13T02:38:04.629Z,15.2
2019-01-13T02:38:45.266Z,15.16
2019-01-13T02:39:25.879Z,15.16
2019-01-13T02:40:06.478Z,15.06
2019-01-13T02:40:47.090Z,15.06
2019-01-13T02:41:27.732Z,15.1
2019-01-13T02:42:08.343Z,15.14
2019-01-13T02:42:48.950Z,15.02
2019-01-13T02:43:29.596Z,15.14
2019-01-13T02:44:10.198Z,15.17
2019-01-13T02:44:50.799Z,15.16
2019-01-13T02:45:31.408Z,15.17
2019-01-13T02:46:12.004Z,15.07
2019-01-13T02:46:52.650Z,15.16
2019-01-13T02:47:33.254Z,15.07
2019-01-13T02:48:13.868Z,15.16
2019-01-13T02:48:54.480Z,15.09
2019-01-13T02:49:35.074Z,15.16
2019-01-13T02:50:15.716Z,15.07
2019-01-13T02:50:56.318Z,15.07
2019-01-13T02:51:36.952Z,15.09
2019-01-13T02:52:17.584Z,15.06
2019-01-13T02:52:58.185Z,15.1
2019-01-13T02:53:38.841Z,15.13
2019-01-13T02:54:19.469Z,15.17
2019-01-13T02:55:00.099Z,15.11
2019-01-13T02:55:40.682Z,15.17
2019-01-13T02:56:21.292Z,15.03
2019-01-13T02:57:01.906Z,15.17
2019-01-13T02:57:42.561Z,15.1
2019-01-13T02:58:23.172Z,15.2
2019-01-13T02:59:03.792Z,15.16
2019-01-13T02:59:44.408Z,15.17
2019-01-13T03:00:25.020Z,15.14
2019-01-13T03:01:05.643Z,15.06
2019-01-13T03:01:46.260Z,15.09
2019-01-13T03:02:26.862Z,15.02
2019-01-13T03:03:07.532Z,15.16
2019-01-13T03:03:48.170Z,15.17
2019-01-13T03:04:28.818Z,15.03
2019-01-13T03:05:09.512Z,15.14
2019-01-13T03:05:50.051Z,15.11
2019-01-13T03:06:30.674Z,15.07
2019-01-13T03:07:11.302Z,15.13
2019-01-13T03:07:51.902Z,15.17
2019-01-13T03:08:32.532Z,15.13
2019-01-13T03:09:13.141Z,15.1
2019-01-13T03:09:53.744Z,15.16
2019-01-13T03:10:34.342Z,15.06
2019-01-13T03:11:14.953Z,15.07
2019-01-13T03:11:55.556Z,15.14
2019-01-13T03:12:36.184Z,15.17
2019-01-13T03:13:16.799Z,15.13
2019-01-13T03:13:57.395Z,15.1
2019-01-13T03:14:38.002Z,15.09
2019-01-13T03:15:19.939Z,15.07
2019-01-13T03:15:59.224Z,15.14
2019-01-13T03:16:39.829Z,15.06
2019-01-13T03:17:20.459Z,15.1
2019-01-13T03:18:01.099Z,15.09
2019-01-13T03:18:41.741Z,15.13
2019-01-13T03:19:22.372Z,15.07
2019-01-13T03:20:03.009Z,15.06
2019-01-13T03:20:43.624Z,15.09
2019-01-13T03:21:24.229Z,15.1
2019-01-13T03:22:04.830Z,15.07
2019-01-13T03:22:45.454Z,15.11
2019-01-13T03:23:26.090Z,15.14
2019-01-13T03:24:07.649Z,15.09
2019-01-13T03:24:48.479Z,15.07
2019-01-13T03:25:29.085Z,15.07
2019-01-13T03:26:09.717Z,15.1
2019-01-13T03:26:50.358Z,15.03
2019-01-13T03:27:30.972Z,15.1
2019-01-13T03:28:11.593Z,15.14
2019-01-13T03:28:52.216Z,15.09
2019-01-13T03:29:32.848Z,15.1
2019-01-13T03:30:13.450Z,15.1
2019-01-13T03:30:54.042Z,14.99
2019-01-13T03:31:34.648Z,15.01
2019-01-13T03:32:15.268Z,15.07
2019-01-13T03:32:55.873Z,15.03
2019-01-13T03:33:36.596Z,15.09
2019-01-13T03:34:17.246Z,15.09
2019-01-13T03:34:57.857Z,15.1
2019-01-13T03:35:38.470Z,15.07
2019-01-13T03:36:19.106Z,15.1
2019-01-13T03:36:59.684Z,15.07
2019-01-13T03:37:40.289Z,15.11
2019-01-13T03:38:20.906Z,15.06
2019-01-13T03:39:01.556Z,15.09
2019-01-13T03:39:42.187Z,15.02
2019-01-13T03:40:22.816Z,15.06
2019-01-13T03:41:03.441Z,15.03
2019-01-13T03:41:44.042Z,15.09
2019-01-13T03:42:24.680Z,15.11
2019-01-13T03:43:05.286Z,15.06
2019-01-13T03:43:45.896Z,15.06
2019-01-13T03:44:26.532Z,15.1
2019-01-13T03:45:07.133Z,15.03
2019-01-13T03:45:47.742Z,15.11
2019-01-13T03:46:28.365Z,15.14
2019-01-13T03:47:08.996Z,15.1
2019-01-13T03:47:49.621Z,15.07
2019-01-13T03:48:30.236Z,15.1
2019-01-13T03:49:10.847Z,15.07
2019-01-13T03:49:51.479Z,15.07
2019-01-13T03:50:32.082Z,15.07
2019-01-13T03:51:12.697Z,15.09
2019-01-13T03:51:53.296Z,14.99
2019-01-13T03:52:33.893Z,14.96
2019-01-13T03:53:14.505Z,15.07
2019-01-13T03:53:55.129Z,15.11
2019-01-13T03:54:35.745Z,15.06
2019-01-13T03:55:16.396Z,15.11
2019-01-13T03:55:57.048Z,15.11
2019-01-13T03:56:37.668Z,15.06
2019-01-13T03:57:18.290Z,14.98
2019-01-13T03:57:58.909Z,15.02
2019-01-13T03:58:39.525Z,15.1
2019-01-13T03:59:20.170Z,15.03
2019-01-13T04:00:00.797Z,14.99
2019-01-13T04:00:41.457Z,14.96
2019-01-13T04:01:22.094Z,15.01
2019-01-13T04:02:02.719Z,15.09
2019-01-13T04:02:43.327Z,15.07
2019-01-13T04:03:23.939Z,15.03
2019-01-13T04:04:04.562Z,15.07
2019-01-13T04:04:45.167Z,15.06
2019-01-13T04:05:25.783Z,15.07
2019-01-13T04:06:06.396Z,14.95
2019-01-13T04:06:46.982Z,15.07
2019-01-13T04:07:27.599Z,15.03
2019-01-13T04:08:08.218Z,15.09
2019-01-13T04:08:48.836Z,15.1
2019-01-13T04:09:29.442Z,15.09
2019-01-13T04:10:10.058Z,14.96
2019-01-13T04:10:50.669Z,14.95
2019-01-13T04:11:31.275Z,15.1
2019-01-13T04:12:11.904Z,15.01
2019-01-13T04:12:52.577Z,15.1
2019-01-13T04:13:33.189Z,15.07
2019-01-13T04:14:13.783Z,15.07
2019-01-13T04:14:54.386Z,15.07
2019-01-13T04:15:35.011Z,15.11
2019-01-13T04:16:15.624Z,14.98
2019-01-13T04:16:56.325Z,15.03
2019-01-13T04:17:37.003Z,15.11
2019-01-13T04:18:17.652Z,15.07
2019-01-13T04:18:58.261Z,15.11
2019-01-13T04:19:38.967Z,15.16
2019-01-13T04:20:19.591Z,15.19
2019-01-13T04:21:00.251Z,15.16
2019-01-13T04:21:40.968Z,15.16
2019-01-13T04:22:21.612Z,15.17
2019-01-13T04:23:02.232Z,15.19
2019-01-13T04:23:42.844Z,15.14
2019-01-13T04:24:23.457Z,15.19
2019-01-13T04:25:04.069Z,15.14
2019-01-13T04:25:44.717Z,15.31
2019-01-13T04:26:25.475Z,15.2
2019-01-13T04:27:06.197Z,15.23
2019-01-13T04:27:46.884Z,15.25
2019-01-13T04:28:27.623Z,15.17
2019-01-13T04:29:08.293Z,15.27
2019-01-13T04:29:48.923Z,15.27
2019-01-13T04:30:29.659Z,15.31
2019-01-13T04:31:10.283Z,15.25
2019-01-13T04:31:50.957Z,15.23
2019-01-13T04:32:31.587Z,15.27
2019-01-13T04:33:12.227Z,15.21
2019-01-13T04:33:53.398Z,15.28
2019-01-13T04:34:34.080Z,15.21
2019-01-13T04:35:14.734Z,15.23
2019-01-13T04:35:55.381Z,15.2
2019-01-13T04:36:35.991Z,15.27
2019-01-13T04:37:17.151Z,15.25
2019-01-13T04:37:57.778Z,15.28
2019-01-13T04:38:38.449Z,15.21
2019-01-13T04:39:19.285Z,15.32
2019-01-13T04:40:00.087Z,15.21
2019-01-13T04:40:40.708Z,15.28
2019-01-13T04:41:21.323Z,15.28
2019-01-13T04:42:01.983Z,15.25
2019-01-13T04:42:42.644Z,15.31
2019-01-13T04:43:23.297Z,15.2
2019-01-13T04:44:03.984Z,15.32
2019-01-13T04:44:44.619Z,15.28
2019-01-13T04:45:25.253Z,15.27
2019-01-13T04:46:05.862Z,15.25
2019-01-13T04:46:46.489Z,15.2
2019-01-13T04:47:27.125Z,15.27
2019-01-13T04:48:07.771Z,15.28
2019-01-13T04:48:48.397Z,15.29
2019-01-13T04:49:29.039Z,15.31
2019-01-13T04:50:09.715Z,15.31
2019-01-13T04:50:50.448Z,15.28
2019-01-13T04:51:31.196Z,15.21
2019-01-13T04:52:11.847Z,15.2
2019-01-13T04:52:52.501Z,15.29
2019-01-13T04:53:33.209Z,15.27
2019-01-13T04:54:13.855Z,15.31
2019-01-13T04:54:54.484Z,15.25
2019-01-13T04:55:35.129Z,15.25
2019-01-13T04:56:15.752Z,15.25
2019-01-13T04:56:56.385Z,15.27
2019-01-13T04:57:36.998Z,15.29
2019-01-13T04:58:17.623Z,15.27
2019-01-13T04:58:58.271Z,15.29
2019-01-13T04:59:38.909Z,15.28
2019-01-13T05:00:19.669Z,15.27
2019-01-13T05:01:00.279Z,15.28
2019-01-13T05:01:40.953Z,15.25
2019-01-13T05:02:21.574Z,15.25
2019-01-13T05:03:02.241Z,15.27
2019-01-13T05:03:42.856Z,15.34
2019-01-13T05:04:23.521Z,15.25
2019-01-13T05:05:04.273Z,15.27
2019-01-13T05:05:44.913Z,15.21
2019-01-13T05:06:25.606Z,15.27
2019-01-13T05:07:06.317Z,15.2
2019-01-13T05:07:47.101Z,15.2
2019-01-13T05:08:27.727Z,15.28
2019-01-13T05:09:08.353Z,15.28
2019-01-13T05:09:49.035Z,15.23
2019-01-13T05:10:29.683Z,15.27
2019-01-13T05:11:10.327Z,15.32
2019-01-13T05:11:50.949Z,15.23
2019-01-13T05:12:31.635Z,15.25
2019-01-13T05:13:12.287Z,15.28
2019-01-13T05:13:52.885Z,15.25
2019-01-13T05:14:33.579Z,15.25
2019-01-13T05:15:14.199Z,15.2
2019-01-13T05:15:54.807Z,15.28
2019-01-13T05:16:35.449Z,15.25
2019-01-13T05:17:16.131Z,15.28
2019-01-13T05:17:56.809Z,15.31
2019-01-13T05:18:37.471Z,15.25
2019-01-13T05:19:18.139Z,15.2
2019-01-13T05:19:58.767Z,15.25
2019-01-13T05:20:40.278Z,15.25
2019-01-13T05:21:20.121Z,15.31
2019-01-13T05:22:00.784Z,15.29
2019-01-13T05:22:41.435Z,15.31
2019-01-13T05:23:22.053Z,15.31
2019-01-13T05:24:02.687Z,15.28
2019-01-13T05:24:43.313Z,15.32
2019-01-13T05:25:23.917Z,15.28
2019-01-13T05:26:04.713Z,15.34
2019-01-13T05:26:45.391Z,15.31
2019-01-13T05:27:26.047Z,15.25
2019-01-13T05:28:06.737Z,15.28
2019-01-13T05:28:47.503Z,15.28
2019-01-13T05:29:28.139Z,15.21
2019-01-13T05:30:08.769Z,15.23
2019-01-13T05:30:49.499Z,15.19
2019-01-13T05:31:30.137Z,15.25
2019-01-13T05:32:10.819Z,15.28
2019-01-13T05:32:51.493Z,15.31
2019-01-13T05:33:32.131Z,15.28
2019-01-13T05:34:12.762Z,15.19
2019-01-13T05:34:53.403Z,15.11
2019-01-13T05:35:34.021Z,15.19
2019-01-13T05:36:14.621Z,15.28
2019-01-13T05:36:55.292Z,15.25
2019-01-13T05:37:35.918Z,15.2
2019-01-13T05:38:16.557Z,15.28
2019-01-13T05:38:57.159Z,15.29
2019-01-13T05:39:37.805Z,15.21
2019-01-13T05:40:18.429Z,15.23
2019-01-13T05:40:59.024Z,15.17
2019-01-13T05:41:39.638Z,15.23
2019-01-13T05:42:20.245Z,15.2
2019-01-13T05:43:00.908Z,15.23
2019-01-13T05:43:41.528Z,15.2
2019-01-13T05:44:22.167Z,15.17
2019-01-13T05:45:02.880Z,15.2
2019-01-13T05:45:43.573Z,15.21
2019-01-13T05:46:24.501Z,15.21
2019-01-13T05:47:05.184Z,15.17
2019-01-13T05:47:45.839Z,15.17
2019-01-13T05:48:26.617Z,15.09
2019-01-13T05:49:07.281Z,15.21
2019-01-13T05:49:47.911Z,15.16
2019-01-13T05:50:28.549Z,15.14
2019-01-13T05:51:09.171Z,15.19
2019-01-13T05:51:49.833Z,15.17
2019-01-13T05:52:30.449Z,15.13
2019-01-13T05:53:11.060Z,15.2
2019-01-13T05:53:51.685Z,15.11
2019-01-13T05:54:32.305Z,15.17
2019-01-13T05:55:13.013Z,15.07
2019-01-13T05:55:53.641Z,15.14
2019-01-13T05:56:34.256Z,15.17
2019-01-13T05:57:14.860Z,15.03
2019-01-13T05:57:55.508Z,15.07
2019-01-13T05:58:36.147Z,15.16
2019-01-13T05:59:16.759Z,15.1
2019-01-13T05:59:57.371Z,15.17
2019-01-13T06:00:37.972Z,15.17
2019-01-13T06:01:18.591Z,15.16
2019-01-13T06:01:59.211Z,15.17
2019-01-13T06:02:40.366Z,15.13
2019-01-13T06:03:20.961Z,15.16
2019-01-13T06:04:01.585Z,15.14
2019-01-13T06:04:42.225Z,15.17
2019-01-13T06:05:22.839Z,15.06
2019-01-13T06:06:03.471Z,15.1
2019-01-13T06:06:44.087Z,15.11
2019-01-13T06:07:24.697Z,15.07
2019-01-13T06:08:05.305Z,15.09
2019-01-13T06:08:45.933Z,15.11
2019-01-13T06:09:26.545Z,15.07
2019-01-13T06:10:07.193Z,15.07
2019-01-13T06:10:47.819Z,15.13
2019-01-13T06:11:28.455Z,15.07
2019-01-13T06:12:09.073Z,15.07
2019-01-13T06:12:50.173Z,15.09
2019-01-13T06:13:30.785Z,15.03
2019-01-13T06:14:11.391Z,15.09
2019-01-13T06:14:52.027Z,15.1
2019-01-13T06:15:32.678Z,15.11
2019-01-13T06:16:13.293Z,15.03
2019-01-13T06:16:53.905Z,15.1
2019-01-13T06:17:34.548Z,15.09
2019-01-13T06:18:15.245Z,15.07
2019-01-13T06:18:55.887Z,14.96
2019-01-13T06:19:36.507Z,15.01
2019-01-13T06:20:17.114Z,14.95
2019-01-13T06:20:57.775Z,15.02
2019-01-13T06:21:38.374Z,14.96
2019-01-13T06:22:19.037Z,14.98
2019-01-13T06:22:59.660Z,15.03
2019-01-13T06:23:40.269Z,15.03
2019-01-13T06:24:20.918Z,14.94
2019-01-13T06:25:01.527Z,14.98
2019-01-13T06:25:42.131Z,14.98
2019-01-13T06:26:22.869Z,14.92
2019-01-13T06:27:03.484Z,14.95
2019-01-13T06:27:44.403Z,14.92
2019-01-13T06:28:24.944Z,15.01
2019-01-13T06:29:05.537Z,14.94
2019-01-13T06:29:46.135Z,14.98
2019-01-13T06:30:26.750Z,14.94
2019-01-13T06:31:07.357Z,14.98
2019-01-13T06:31:47.973Z,14.95
2019-01-13T06:32:28.591Z,14.96
2019-01-13T06:33:09.239Z,15.02
2019-01-13T06:33:49.853Z,15.02
2019-01-13T06:34:30.463Z,14.89
2019-01-13T06:35:11.113Z,14.89
2019-01-13T06:35:51.722Z,15.01
2019-01-13T06:36:32.331Z,14.92
2019-01-13T06:37:12.929Z,15.01
2019-01-13T06:37:53.527Z,14.94
2019-01-13T06:38:34.153Z,14.98
2019-01-13T06:39:14.770Z,15.07
2019-01-13T06:39:55.368Z,14.96
2019-01-13T06:40:35.973Z,14.96
2019-01-13T06:41:16.594Z,15.02
2019-01-13T06:41:57.232Z,14.95
2019-01-13T06:42:37.885Z,15.01
2019-01-13T06:43:18.497Z,14.92
2019-01-13T06:43:59.123Z,15.02
2019-01-13T06:44:39.749Z,14.96
2019-01-13T06:45:20.384Z,14.95
2019-01-13T06:46:00.987Z,14.88
2019-01-13T06:46:41.631Z,14.96
2019-01-13T06:47:22.247Z,14.98
2019-01-13T06:48:02.851Z,14.94
2019-01-13T06:48:43.459Z,14.95
2019-01-13T06:49:24.105Z,14.95
2019-01-13T06:50:04.747Z,14.92
2019-01-13T06:50:45.379Z,14.88
2019-01-13T06:51:26.003Z,14.92
2019-01-13T06:52:06.627Z,15.01
2019-01-13T06:52:47.245Z,14.95
2019-01-13T06:53:27.873Z,14.92
2019-01-13T06:54:08.484Z,14.92
2019-01-13T06:54:49.121Z,14.94
2019-01-13T06:55:29.733Z,14.96
2019-01-13T06:56:10.339Z,14.89
2019-01-13T06:56:50.954Z,14.98
2019-01-13T06:57:31.576Z,14.96
2019-01-13T06:58:12.231Z,14.94
2019-01-13T06:58:52.834Z,14.95
2019-01-13T06:59:33.441Z,14.94
2019-01-13T07:00:14.049Z,15.02
2019-01-13T07:00:54.655Z,14.99
2019-01-13T07:01:35.259Z,14.94
2019-01-13T07:02:15.844Z,14.95
2019-01-13T07:02:56.458Z,14.98
2019-01-13T07:03:37.100Z,14.94
2019-01-13T07:04:17.708Z,14.92
2019-01-13T07:04:58.321Z,14.91
2019-01-13T07:05:38.955Z,15.01
2019-01-13T07:06:19.553Z,14.92
2019-01-13T07:07:00.199Z,14.92
2019-01-13T07:07:40.815Z,14.98
2019-01-13T07:08:21.413Z,14.95
2019-01-13T07:09:02.029Z,14.96
2019-01-13T07:09:42.702Z,14.96
2019-01-13T07:10:23.328Z,14.92
2019-01-13T07:11:03.951Z,14.96
2019-01-13T07:11:44.624Z,15.01
2019-01-13T07:12:25.228Z,14.98
2019-01-13T07:13:05.849Z,15.01
2019-01-13T07:13:46.495Z,14.88
2019-01-13T07:14:27.164Z,14.99
2019-01-13T07:15:07.791Z,14.89
2019-01-13T07:15:48.426Z,14.98
2019-01-13T07:16:29.026Z,14.92
2019-01-13T07:17:09.653Z,14.89
2019-01-13T07:17:50.259Z,14.98
2019-01-13T07:18:30.882Z,14.99
2019-01-13T07:19:11.545Z,14.98
2019-01-13T07:19:52.151Z,14.98
2019-01-13T07:20:32.769Z,14.95
2019-01-13T07:21:13.390Z,14.98
2019-01-13T07:21:54.018Z,14.94
2019-01-13T07:22:34.622Z,14.91
2019-01-13T07:23:15.225Z,15.01
2019-01-13T07:23:55.829Z,14.94
2019-01-13T07:24:36.439Z,14.95
2019-01-13T07:25:17.073Z,14.92
2019-01-13T07:25:57.686Z,14.96
2019-01-13T07:26:38.373Z,15.01
2019-01-13T07:27:18.985Z,14.92
2019-01-13T07:27:59.612Z,15.01
2019-01-13T07:28:40.241Z,15.01
2019-01-13T07:29:20.847Z,14.92
2019-01-13T07:30:01.440Z,14.98
2019-01-13T07:30:42.058Z,14.94
2019-01-13T07:31:22.703Z,14.99
2019-01-13T07:32:10.577Z,14.94
2019-01-13T07:32:43.919Z,14.92
2019-01-13T07:33:24.555Z,14.95
2019-01-13T07:34:05.161Z,14.99
2019-01-13T07:34:45.774Z,14.94
2019-01-13T07:35:26.429Z,14.99
2019-01-13T07:36:07.078Z,14.95
2019-01-13T07:36:47.745Z,15.01
2019-01-13T07:37:28.373Z,15.03
2019-01-13T07:38:09.014Z,15.02
2019-01-13T07:38:49.628Z,14.96
2019-01-13T07:39:30.230Z,14.95
2019-01-13T07:40:10.832Z,15.01
2019-01-13T07:40:51.439Z,14.96
2019-01-13T07:41:32.075Z,14.94
2019-01-13T07:42:12.731Z,15.01
2019-01-13T07:42:53.354Z,14.92
2019-01-13T07:43:34.002Z,14.99
2019-01-13T07:44:14.654Z,14.96
2019-01-13T07:44:55.682Z,15.02
2019-01-13T07:45:36.318Z,14.91
2019-01-13T07:46:17.017Z,14.99
2019-01-13T07:46:57.662Z,15.01
2019-01-13T07:47:38.328Z,14.98
2019-01-13T07:48:18.934Z,14.94
2019-01-13T07:48:59.547Z,14.98
2019-01-13T07:49:40.244Z,15.06
2019-01-13T07:50:20.851Z,14.95
2019-01-13T07:51:01.483Z,15.02
2019-01-13T07:51:42.163Z,15.01
2019-01-13T07:52:22.753Z,15.01
2019-01-13T07:53:03.381Z,15.06
2019-01-13T07:53:43.999Z,14.98
2019-01-13T07:54:24.763Z,14.95
2019-01-13T07:55:05.409Z,15.02
2019-01-13T07:55:46.151Z,14.92
2019-01-13T07:56:26.895Z,14.96
2019-01-13T07:57:07.502Z,14.91
2019-01-13T07:57:48.114Z,15.03
2019-01-13T07:58:28.730Z,14.92
2019-01-13T07:59:09.501Z,14.96
2019-01-13T07:59:50.110Z,15.02
2019-01-13T08:00:30.726Z,14.98
2019-01-13T08:01:11.351Z,15.01
2019-01-13T08:01:52.060Z,15.01
2019-01-13T08:02:32.745Z,14.92
2019-01-13T08:03:13.505Z,14.99
2019-01-13T08:03:54.038Z,14.92
2019-01-13T08:04:34.679Z,14.95
2019-01-13T08:05:15.308Z,14.91
2019-01-13T08:05:55.929Z,14.89
2019-01-13T08:06:36.601Z,14.92
2019-01-13T08:07:17.168Z,14.98
2019-01-13T08:07:57.782Z,14.99
2019-01-13T08:08:38.386Z,14.98
2019-01-13T08:09:19.013Z,15.03
2019-01-13T08:10:00.038Z,14.89
2019-01-13T08:10:40.750Z,15.01
2019-01-13T08:11:21.352Z,14.95
2019-01-13T08:12:01.992Z,14.98
2019-01-13T08:12:42.607Z,14.89
2019-01-13T08:13:23.188Z,14.95
2019-01-13T08:14:03.801Z,14.94
2019-01-13T08:14:44.414Z,15.01
2019-01-13T08:15:25.047Z,14.92
2019-01-13T08:16:05.653Z,14.96
2019-01-13T08:16:46.285Z,14.94
2019-01-13T08:17:26.857Z,14.91
2019-01-13T08:18:07.461Z,14.94
2019-01-13T08:18:48.068Z,14.95
2019-01-13T08:19:28.697Z,14.99
2019-01-13T08:20:09.459Z,15.02
2019-01-13T08:20:50.068Z,14.95
2019-01-13T08:21:30.675Z,15.02
2019-01-13T08:22:11.320Z,14.91
2019-01-13T08:22:51.929Z,14.94
2019-01-13T08:23:32.548Z,14.98
2019-01-13T08:24:13.184Z,14.92
2019-01-13T08:24:53.812Z,14.92
2019-01-13T08:25:34.436Z,15.03
2019-01-13T08:26:15.062Z,14.95
2019-01-13T08:26:55.684Z,15.02
2019-01-13T08:27:36.294Z,14.94
2019-01-13T08:28:16.931Z,14.94
2019-01-13T08:28:57.492Z,14.98
2019-01-13T08:29:38.075Z,15.06
2019-01-13T08:30:18.667Z,14.99
2019-01-13T08:30:59.292Z,15.02
2019-01-13T08:31:39.916Z,14.94
2019-01-13T08:32:24.876Z,14.96
2019-01-13T08:33:01.148Z,15.03
2019-01-13T08:33:41.758Z,15.06
2019-01-13T08:34:22.369Z,15.09
2019-01-13T08:35:03.001Z,14.96
2019-01-13T08:35:43.617Z,14.96
2019-01-13T08:36:24.222Z,15.01
2019-01-13T08:37:04.832Z,15.1
2019-01-13T08:37:45.439Z,15.02
2019-01-13T08:38:26.054Z,14.96
2019-01-13T08:39:06.678Z,14.99
2019-01-13T08:39:47.331Z,15.03
2019-01-13T08:40:27.958Z,15.07
2019-01-13T08:41:08.602Z,15.06
2019-01-13T08:41:49.226Z,15.03
2019-01-13T08:42:29.844Z,15.02
2019-01-13T08:43:10.480Z,15.03
2019-01-13T08:43:51.137Z,15.1
2019-01-13T08:44:31.752Z,15.03
2019-01-13T08:45:12.387Z,15.07
2019-01-13T08:45:53.060Z,15.09
2019-01-13T08:46:33.693Z,15.03